sensor_id;sensor_type;location;lat;lon;timestamp;pressure;altitude;pressure_sealevel;temperature;humidity
18784;BME280;9520;50.954;6.968;2024-02-14T00:00:21;101041.88;;;16.19;44.95
18784;BME280;9520;50.954;6.968;2024-02-14T00:00:46;101037.25;;;16.24;44.61
18784;BME280;9520;50.954;6.968;2024-02-14T00:01:08;101036.19;;;16.29;44.39
18784;BME280;9520;50.954;6.968;2024-02-14T00:01:30;101032.66;;;16.29;44.74
18784;BME280;9520;50.954;6.968;2024-02-14T00:01:53;101037.91;;;16.32;44.70
18784;BME280;9520;50.954;6.968;2024-02-14T00:02:14;101036.13;;;16.32;44.62
18784;BME280;9520;50.954;6.968;2024-02-14T00:02:37;101036.13;;;16.32;44.41
18784;BME280;9520;50.954;6.968;2024-02-14T00:02:59;101030.88;;;16.29;44.59
18784;BME280;9520;50.954;6.968;2024-02-14T00:03:21;101034.38;;;16.31;44.26
18784;BME280;9520;50.954;6.968;2024-02-14T00:03:45;101036.88;;;16.36;44.18
18784;BME280;9520;50.954;6.968;2024-02-14T00:04:07;101033.16;;;16.41;43.92
18784;BME280;9520;50.954;6.968;2024-02-14T00:04:29;101031.50;;;16.37;44.10
18784;BME280;9520;50.954;6.968;2024-02-14T00:04:51;101034.06;;;16.40;44.17
18784;BME280;9520;50.954;6.968;2024-02-14T00:05:13;101032.09;;;16.19;44.31
18784;BME280;9520;50.954;6.968;2024-02-14T00:05:35;101032.31;;;16.13;44.28
18784;BME280;9520;50.954;6.968;2024-02-14T00:05:58;101034.94;;;15.87;44.80
18784;BME280;9520;50.954;6.968;2024-02-14T00:06:20;101023.56;;;15.82;44.73
18784;BME280;9520;50.954;6.968;2024-02-14T00:06:41;101035.63;;;15.93;44.86
18784;BME280;9520;50.954;6.968;2024-02-14T00:07:04;101034.53;;;15.99;44.65
18784;BME280;9520;50.954;6.968;2024-02-14T00:07:26;101031.66;;;16.05;44.60
18784;BME280;9520;50.954;6.968;2024-02-14T00:07:49;101029.69;;;16.12;44.55
18784;BME280;9520;50.954;6.968;2024-02-14T00:08:11;101037.56;;;16.15;44.84
18784;BME280;9520;50.954;6.968;2024-02-14T00:08:34;101032.97;;;16.20;45.02
18784;BME280;9520;50.954;6.968;2024-02-14T00:08:57;101036.41;;;16.23;44.64
18784;BME280;9520;50.954;6.968;2024-02-14T00:09:18;101032.75;;;16.27;44.55
18784;BME280;9520;50.954;6.968;2024-02-14T00:09:41;101029.84;;;16.33;44.24
18784;BME280;9520;50.954;6.968;2024-02-14T00:10:03;101030.88;;;16.29;44.34
18784;BME280;9520;50.954;6.968;2024-02-14T00:10:27;101034.59;;;16.24;44.18
18784;BME280;9520;50.954;6.968;2024-02-14T00:10:48;101029.09;;;16.30;44.29
18784;BME280;9520;50.954;6.968;2024-02-14T00:11:11;101027.09;;;16.36;44.33
18784;BME280;9520;50.954;6.968;2024-02-14T00:11:33;101032.34;;;16.38;44.51
18784;BME280;9520;50.954;6.968;2024-02-14T00:11:56;101022.69;;;16.35;44.11
18784;BME280;9520;50.954;6.968;2024-02-14T00:12:17;101031.34;;;16.42;44.35
18784;BME280;9520;50.954;6.968;2024-02-14T00:12:39;101037.19;;;16.27;44.06
18784;BME280;9520;50.954;6.968;2024-02-14T00:13:01;101033.47;;;16.32;43.80
18784;BME280;9520;50.954;6.968;2024-02-14T00:13:24;101029.66;;;16.39;43.92
18784;BME280;9520;50.954;6.968;2024-02-14T00:13:46;101032.16;;;16.44;43.79
18784;BME280;9520;50.954;6.968;2024-02-14T00:14:10;101026.06;;;16.40;43.75
18784;BME280;9520;50.954;6.968;2024-02-14T00:14:31;101027.75;;;16.43;43.61
18784;BME280;9520;50.954;6.968;2024-02-14T00:14:53;101028.00;;;16.35;43.79
18784;BME280;9520;50.954;6.968;2024-02-14T00:15:15;101025.56;;;16.29;43.85
18784;BME280;9520;50.954;6.968;2024-02-14T00:15:38;101028.38;;;16.25;44.30
18784;BME280;9520;50.954;6.968;2024-02-14T00:16:01;101027.25;;;16.32;44.05
18784;BME280;9520;50.954;6.968;2024-02-14T00:16:24;101029.06;;;16.31;43.96
18784;BME280;9520;50.954;6.968;2024-02-14T00:16:45;101032.59;;;16.32;43.73
18784;BME280;9520;50.954;6.968;2024-02-14T00:17:07;101031.59;;;16.34;43.96
18784;BME280;9520;50.954;6.968;2024-02-14T00:17:31;101030.06;;;16.27;43.95
18784;BME280;9520;50.954;6.968;2024-02-14T00:17:53;101032.94;;;16.21;44.01
18784;BME280;9520;50.954;6.968;2024-02-14T00:18:15;101030.63;;;16.11;44.14
18784;BME280;9520;50.954;6.968;2024-02-14T00:18:37;101035.78;;;16.15;43.91
18784;BME280;9520;50.954;6.968;2024-02-14T00:18:59;101028.47;;;16.22;44.01
18784;BME280;9520;50.954;6.968;2024-02-14T00:19:24;101025.50;;;16.31;43.83
18784;BME280;9520;50.954;6.968;2024-02-14T00:19:46;101017.47;;;16.32;43.89
18784;BME280;9520;50.954;6.968;2024-02-14T00:20:09;101027.97;;;16.37;43.93
18784;BME280;9520;50.954;6.968;2024-02-14T00:20:33;101020.72;;;16.42;43.66
18784;BME280;9520;50.954;6.968;2024-02-14T00:20:55;101032.13;;;16.46;44.18
18784;BME280;9520;50.954;6.968;2024-02-14T00:21:17;101026.84;;;16.44;44.13
18784;BME280;9520;50.954;6.968;2024-02-14T00:21:39;101026.06;;;16.40;43.96
18784;BME280;9520;50.954;6.968;2024-02-14T00:22:01;101023.25;;;16.45;43.73
18784;BME280;9520;50.954;6.968;2024-02-14T00:22:23;101032.31;;;16.39;43.98
18784;BME280;9520;50.954;6.968;2024-02-14T00:22:45;101032.50;;;16.33;43.85
18784;BME280;9520;50.954;6.968;2024-02-14T00:23:08;101026.38;;;16.31;44.13
18784;BME280;9520;50.954;6.968;2024-02-14T00:23:29;101027.09;;;16.36;43.96
18784;BME280;9520;50.954;6.968;2024-02-14T00:23:51;101027.88;;;16.40;43.89
18784;BME280;9520;50.954;6.968;2024-02-14T00:24:13;101026.91;;;16.42;43.84
18784;BME280;9520;50.954;6.968;2024-02-14T00:24:35;101028.53;;;16.47;43.83
18784;BME280;9520;50.954;6.968;2024-02-14T00:24:58;101032.00;;;16.49;44.32
18784;BME280;9520;50.954;6.968;2024-02-14T00:25:19;101034.75;;;16.47;44.09
18784;BME280;9520;50.954;6.968;2024-02-14T00:25:41;101033.31;;;16.37;43.92
18784;BME280;9520;50.954;6.968;2024-02-14T00:26:03;101028.94;;;16.34;43.95
18784;BME280;9520;50.954;6.968;2024-02-14T00:26:25;101034.19;;;16.37;43.74
18784;BME280;9520;50.954;6.968;2024-02-14T00:26:48;101026.28;;;16.34;43.79
18784;BME280;9520;50.954;6.968;2024-02-14T00:27:11;101027.97;;;16.37;43.99
18784;BME280;9520;50.954;6.968;2024-02-14T00:27:35;101024.53;;;16.33;43.89
18784;BME280;9520;50.954;6.968;2024-02-14T00:27:57;101031.72;;;16.31;44.05
18784;BME280;9520;50.954;6.968;2024-02-14T00:28:22;101022.00;;;16.29;44.45
18784;BME280;9520;50.954;6.968;2024-02-14T00:28:45;101033.00;;;16.18;44.37
18784;BME280;9520;50.954;6.968;2024-02-14T00:29:06;101026.72;;;16.21;44.52
18784;BME280;9520;50.954;6.968;2024-02-14T00:29:28;101028.38;;;16.25;44.46
18784;BME280;9520;50.954;6.968;2024-02-14T00:29:50;101026.59;;;16.25;44.66
18784;BME280;9520;50.954;6.968;2024-02-14T00:30:13;101029.13;;;16.02;44.90
18784;BME280;9520;50.954;6.968;2024-02-14T00:30:36;101022.00;;;15.75;45.33
18784;BME280;9520;50.954;6.968;2024-02-14T00:30:58;101034.22;;;15.80;45.56
18784;BME280;9520;50.954;6.968;2024-02-14T00:31:19;101026.03;;;15.88;45.22
18784;BME280;9520;50.954;6.968;2024-02-14T00:31:41;101028.63;;;15.89;45.09
18784;BME280;9520;50.954;6.968;2024-02-14T00:32:06;101027.53;;;15.96;45.40
18784;BME280;9520;50.954;6.968;2024-02-14T00:32:29;101032.16;;;15.90;45.14
18784;BME280;9520;50.954;6.968;2024-02-14T00:32:51;101027.84;;;15.86;45.28
18784;BME280;9520;50.954;6.968;2024-02-14T00:33:12;101023.44;;;15.85;45.64
18784;BME280;9520;50.954;6.968;2024-02-14T00:33:35;101025.00;;;15.92;45.58
18784;BME280;9520;50.954;6.968;2024-02-14T00:33:57;101024.13;;;15.91;45.89
18784;BME280;9520;50.954;6.968;2024-02-14T00:34:19;101017.78;;;15.95;45.53
18784;BME280;9520;50.954;6.968;2024-02-14T00:34:41;101019.00;;;15.85;45.68
18784;BME280;9520;50.954;6.968;2024-02-14T00:35:05;101030.28;;;15.93;45.90
18784;BME280;9520;50.954;6.968;2024-02-14T00:35:27;101023.38;;;15.88;45.67
18784;BME280;9520;50.954;6.968;2024-02-14T00:35:49;101023.81;;;16.02;45.58
18784;BME280;9520;50.954;6.968;2024-02-14T00:36:11;101027.19;;;16.07;45.39
18784;BME280;9520;50.954;6.968;2024-02-14T00:36:33;101006.81;;;16.06;45.55
18784;BME280;9520;50.954;6.968;2024-02-14T00:36:57;101009.34;;;16.09;45.48
18784;BME280;9520;50.954;6.968;2024-02-14T00:37:20;101020.41;;;16.23;45.63
18784;BME280;9520;50.954;6.968;2024-02-14T00:37:42;101013.38;;;16.22;45.54
18784;BME280;9520;50.954;6.968;2024-02-14T00:38:04;101018.47;;;16.28;45.64
18784;BME280;9520;50.954;6.968;2024-02-14T00:38:25;101023.59;;;16.34;45.12
18784;BME280;9520;50.954;6.968;2024-02-14T00:38:47;101018.28;;;16.34;45.63
18784;BME280;9520;50.954;6.968;2024-02-14T00:39:10;101014.91;;;16.29;45.48
18784;BME280;9520;50.954;6.968;2024-02-14T00:39:32;101014.16;;;16.26;45.32
18784;BME280;9520;50.954;6.968;2024-02-14T00:39:53;101015.16;;;16.22;45.16
18784;BME280;9520;50.954;6.968;2024-02-14T00:40:15;101019.66;;;16.20;45.42
18784;BME280;9520;50.954;6.968;2024-02-14T00:40:39;101007.22;;;16.20;45.45
18784;BME280;9520;50.954;6.968;2024-02-14T00:41:00;101017.72;;;16.25;45.52
18784;BME280;9520;50.954;6.968;2024-02-14T00:41:22;101012.44;;;16.23;45.45
18784;BME280;9520;50.954;6.968;2024-02-14T00:41:46;101016.84;;;16.24;45.37
18784;BME280;9520;50.954;6.968;2024-02-14T00:42:08;101002.94;;;16.16;45.48
18784;BME280;9520;50.954;6.968;2024-02-14T00:42:33;101013.38;;;16.22;45.26
18784;BME280;9520;50.954;6.968;2024-02-14T00:42:55;101015.03;;;16.26;45.36
18784;BME280;9520;50.954;6.968;2024-02-14T00:43:16;101011.28;;;16.32;45.18
18784;BME280;9520;50.954;6.968;2024-02-14T00:43:38;101003.38;;;16.29;45.58
18784;BME280;9520;50.954;6.968;2024-02-14T00:44:00;101014.81;;;16.32;45.76
18784;BME280;9520;50.954;6.968;2024-02-14T00:44:22;101011.47;;;16.26;45.35
18784;BME280;9520;50.954;6.968;2024-02-14T00:44:45;100996.41;;;15.98;45.44
18784;BME280;9520;50.954;6.968;2024-02-14T00:45:08;101010.31;;;16.08;45.47
18784;BME280;9520;50.954;6.968;2024-02-14T00:45:30;101009.59;;;16.03;45.55
18784;BME280;9520;50.954;6.968;2024-02-14T00:45:52;101005.81;;;16.09;45.38
18784;BME280;9520;50.954;6.968;2024-02-14T00:46:16;101004.97;;;16.08;45.49
18784;BME280;9520;50.954;6.968;2024-02-14T00:46:37;101008.44;;;16.10;45.29
18784;BME280;9520;50.954;6.968;2024-02-14T00:46:59;101015.41;;;16.14;45.27
18784;BME280;9520;50.954;6.968;2024-02-14T00:47:23;101016.63;;;16.04;45.48
18784;BME280;9520;50.954;6.968;2024-02-14T00:47:45;101018.38;;;16.05;45.61
18784;BME280;9520;50.954;6.968;2024-02-14T00:48:08;101016.34;;;16.13;45.67
18784;BME280;9520;50.954;6.968;2024-02-14T00:48:31;101010.81;;;16.19;45.75
18784;BME280;9520;50.954;6.968;2024-02-14T00:48:53;101010.72;;;16.22;45.80
18784;BME280;9520;50.954;6.968;2024-02-14T00:49:16;101013.59;;;16.16;45.59
18784;BME280;9520;50.954;6.968;2024-02-14T00:49:37;101009.88;;;16.20;45.35
18784;BME280;9520;50.954;6.968;2024-02-14T00:50:01;101013.59;;;16.16;45.76
18784;BME280;9520;50.954;6.968;2024-02-14T00:50:23;101023.97;;;16.24;45.79
18784;BME280;9520;50.954;6.968;2024-02-14T00:50:44;101023.00;;;16.26;46.09
18784;BME280;9520;50.954;6.968;2024-02-14T00:51:06;101021.09;;;16.30;45.86
18784;BME280;9520;50.954;6.968;2024-02-14T00:51:28;101018.59;;;16.25;45.84
18784;BME280;9520;50.954;6.968;2024-02-14T00:51:49;101027.69;;;16.18;45.84
18784;BME280;9520;50.954;6.968;2024-02-14T00:52:12;101022.75;;;16.08;46.01
18784;BME280;9520;50.954;6.968;2024-02-14T00:52:34;101027.81;;;16.15;45.70
18784;BME280;9520;50.954;6.968;2024-02-14T00:52:56;101022.28;;;16.21;45.57
18784;BME280;9520;50.954;6.968;2024-02-14T00:53:17;101021.22;;;16.27;45.74
18784;BME280;9520;50.954;6.968;2024-02-14T00:53:40;101013.16;;;16.28;45.74
18784;BME280;9520;50.954;6.968;2024-02-14T00:54:03;101021.03;;;16.33;45.84
18784;BME280;9520;50.954;6.968;2024-02-14T00:54:25;101012.91;;;16.36;45.87
18784;BME280;9520;50.954;6.968;2024-02-14T00:54:47;101004.81;;;16.39;45.82
18784;BME280;9520;50.954;6.968;2024-02-14T00:55:09;101013.63;;;16.41;45.85
18784;BME280;9520;50.954;6.968;2024-02-14T00:55:30;101016.34;;;16.39;45.80
18784;BME280;9520;50.954;6.968;2024-02-14T00:55:53;101011.44;;;16.27;45.45
18784;BME280;9520;50.954;6.968;2024-02-14T00:56:15;101013.94;;;16.32;45.18
18784;BME280;9520;50.954;6.968;2024-02-14T00:56:37;101007.66;;;16.08;45.62
18784;BME280;9520;50.954;6.968;2024-02-14T00:56:59;101003.97;;;16.12;45.91
18784;BME280;9520;50.954;6.968;2024-02-14T00:57:21;101001.50;;;16.06;45.89
18784;BME280;9520;50.954;6.968;2024-02-14T00:57:48;101007.50;;;16.13;45.55
18784;BME280;9520;50.954;6.968;2024-02-14T00:58:11;100998.78;;;16.08;45.54
18784;BME280;9520;50.954;6.968;2024-02-14T00:58:32;101007.66;;;16.08;45.75
18784;BME280;9520;50.954;6.968;2024-02-14T00:58:54;101007.69;;;16.07;45.80
18784;BME280;9520;50.954;6.968;2024-02-14T00:59:16;101008.91;;;15.96;45.65
18784;BME280;9520;50.954;6.968;2024-02-14T00:59:38;101001.72;;;15.98;45.83
18784;BME280;9520;50.954;6.968;2024-02-14T01:00:00;101009.78;;;15.97;45.99
18784;BME280;9520;50.954;6.968;2024-02-14T01:00:23;101002.41;;;16.05;45.83
18784;BME280;9520;50.954;6.968;2024-02-14T01:00:45;101001.53;;;16.05;45.85
18784;BME280;9520;50.954;6.968;2024-02-14T01:01:07;101001.22;;;16.14;46.03
18784;BME280;9520;50.954;6.968;2024-02-14T01:01:29;101005.47;;;16.19;45.85
18784;BME280;9520;50.954;6.968;2024-02-14T01:01:50;101008.00;;;16.24;45.87
18784;BME280;9520;50.954;6.968;2024-02-14T01:02:12;100999.97;;;16.25;45.80
18784;BME280;9520;50.954;6.968;2024-02-14T01:02:35;101005.63;;;16.15;45.87
18784;BME280;9520;50.954;6.968;2024-02-14T01:02:57;100997.81;;;16.10;45.64
18784;BME280;9520;50.954;6.968;2024-02-14T01:03:19;101013.28;;;15.70;46.33
18784;BME280;9520;50.954;6.968;2024-02-14T01:03:40;101000.44;;;15.54;46.96
18784;BME280;9520;50.954;6.968;2024-02-14T01:04:36;101009.53;;;15.77;46.84
18784;BME280;9520;50.954;6.968;2024-02-14T01:04:59;100997.75;;;15.84;46.40
18784;BME280;9520;50.954;6.968;2024-02-14T01:05:20;101005.75;;;15.84;46.46
18784;BME280;9520;50.954;6.968;2024-02-14T01:05:42;101001.44;;;15.80;46.42
18784;BME280;9520;50.954;6.968;2024-02-14T01:06:04;100999.50;;;15.85;46.46
18784;BME280;9520;50.954;6.968;2024-02-14T01:06:26;101000.19;;;15.91;46.41
18784;BME280;9520;50.954;6.968;2024-02-14T01:06:49;100992.91;;;15.98;46.41
18784;BME280;9520;50.954;6.968;2024-02-14T01:07:12;100992.66;;;16.04;46.18
18784;BME280;9520;50.954;6.968;2024-02-14T01:07:34;100999.59;;;16.10;46.36
18784;BME280;9520;50.954;6.968;2024-02-14T01:07:56;100995.88;;;16.15;46.62
18784;BME280;9520;50.954;6.968;2024-02-14T01:08:18;100995.72;;;16.20;46.31
18784;BME280;9520;50.954;6.968;2024-02-14T01:08:40;100995.66;;;16.21;46.01
18784;BME280;9520;50.954;6.968;2024-02-14T01:09:03;100998.13;;;16.27;45.96
18784;BME280;9520;50.954;6.968;2024-02-14T01:09:26;100986.47;;;16.31;46.02
18784;BME280;9520;50.954;6.968;2024-02-14T01:09:48;100991.66;;;16.34;45.99
18784;BME280;9520;50.954;6.968;2024-02-14T01:10:11;100991.59;;;16.37;45.75
18784;BME280;9520;50.954;6.968;2024-02-14T01:10:33;100992.19;;;16.46;45.88
18784;BME280;9520;50.954;6.968;2024-02-14T01:10:55;100993.72;;;16.26;45.71
18784;BME280;9520;50.954;6.968;2024-02-14T01:11:16;100990.88;;;16.32;45.90
18784;BME280;9520;50.954;6.968;2024-02-14T01:11:38;100984.44;;;16.38;45.85
18784;BME280;9520;50.954;6.968;2024-02-14T01:12:01;100988.75;;;16.42;45.42
18784;BME280;9520;50.954;6.968;2024-02-14T01:12:23;100979.75;;;16.46;45.55
18784;BME280;9520;50.954;6.968;2024-02-14T01:12:45;100985.25;;;16.40;45.60
18784;BME280;9520;50.954;6.968;2024-02-14T01:13:08;100981.66;;;16.42;46.00
18784;BME280;9520;50.954;6.968;2024-02-14T01:13:30;100983.31;;;16.45;46.01
18784;BME280;9520;50.954;6.968;2024-02-14T01:13:52;100989.16;;;16.30;46.00
18784;BME280;9520;50.954;6.968;2024-02-14T01:14:14;100986.69;;;15.97;46.20
18784;BME280;9520;50.954;6.968;2024-02-14T01:14:35;100982.34;;;15.95;46.38
18784;BME280;9520;50.954;6.968;2024-02-14T01:14:57;100988.53;;;15.95;46.72
18784;BME280;9520;50.954;6.968;2024-02-14T01:15:20;100989.94;;;16.07;46.50
18784;BME280;9520;50.954;6.968;2024-02-14T01:15:43;100995.88;;;16.15;46.24
18784;BME280;9520;50.954;6.968;2024-02-14T01:16:05;100994.34;;;16.08;46.36
18784;BME280;9520;50.954;6.968;2024-02-14T01:16:27;100988.41;;;15.98;46.44
18784;BME280;9520;50.954;6.968;2024-02-14T01:16:48;100988.06;;;15.83;46.65
18784;BME280;9520;50.954;6.968;2024-02-14T01:17:11;100996.78;;;15.88;47.03
18784;BME280;9520;50.954;6.968;2024-02-14T01:17:33;100992.09;;;15.94;46.71
18784;BME280;9520;50.954;6.968;2024-02-14T01:17:57;100994.53;;;16.02;46.61
18784;BME280;9520;50.954;6.968;2024-02-14T01:18:19;100994.34;;;16.08;46.84
18784;BME280;9520;50.954;6.968;2024-02-14T01:18:42;100990.69;;;16.11;46.48
18784;BME280;9520;50.954;6.968;2024-02-14T01:19:04;100989.03;;;16.08;46.76
18784;BME280;9520;50.954;6.968;2024-02-14T01:19:25;100993.25;;;15.87;46.92
18784;BME280;9520;50.954;6.968;2024-02-14T01:19:50;100991.38;;;15.89;47.05
18784;BME280;9520;50.954;6.968;2024-02-14T01:20:13;100986.78;;;15.94;46.75
18784;BME280;9520;50.954;6.968;2024-02-14T01:20:34;100978.66;;;15.99;46.76
18784;BME280;9520;50.954;6.968;2024-02-14T01:20:56;100984.66;;;16.06;46.63
18784;BME280;9520;50.954;6.968;2024-02-14T01:21:20;100987.16;;;16.10;46.40
18784;BME280;9520;50.954;6.968;2024-02-14T01:21:41;100994.13;;;16.14;46.58
18784;BME280;9520;50.954;6.968;2024-02-14T01:22:04;100986.84;;;16.19;46.53
18784;BME280;9520;50.954;6.968;2024-02-14T01:22:26;100990.34;;;16.21;46.33
18784;BME280;9520;50.954;6.968;2024-02-14T01:22:48;100986.06;;;16.17;46.21
18784;BME280;9520;50.954;6.968;2024-02-14T01:23:09;100991.25;;;16.20;46.27
18784;BME280;9520;50.954;6.968;2024-02-14T01:23:31;100990.34;;;16.21;46.03
18784;BME280;9520;50.954;6.968;2024-02-14T01:23:53;100990.16;;;16.27;45.94
18784;BME280;9520;50.954;6.968;2024-02-14T01:24:16;100977.75;;;16.26;46.07
18784;BME280;9520;50.954;6.968;2024-02-14T01:24:38;100983.06;;;16.26;46.38
18784;BME280;9520;50.954;6.968;2024-02-14T01:25:00;100987.38;;;16.30;46.17
18784;BME280;9520;50.954;6.968;2024-02-14T01:25:22;100977.44;;;16.35;46.04
18784;BME280;9520;50.954;6.968;2024-02-14T01:25:44;100980.06;;;16.37;46.18
18784;BME280;9520;50.954;6.968;2024-02-14T01:26:07;100988.81;;;16.40;46.31
18784;BME280;9520;50.954;6.968;2024-02-14T01:26:29;100989.50;;;16.46;45.98
18784;BME280;9520;50.954;6.968;2024-02-14T01:26:50;100994.72;;;16.49;45.91
18784;BME280;9520;50.954;6.968;2024-02-14T01:27:12;100959.72;;;16.34;45.77
18784;BME280;9520;50.954;6.968;2024-02-14T01:27:35;100984.38;;;16.39;45.63
18784;BME280;9520;50.954;6.968;2024-02-14T01:27:57;100975.59;;;16.37;45.76
18784;BME280;9520;50.954;6.968;2024-02-14T01:28:20;100979.06;;;16.39;45.81
18784;BME280;9520;50.954;6.968;2024-02-14T01:28:42;100978.88;;;16.46;45.80
18784;BME280;9520;50.954;6.968;2024-02-14T01:29:05;100981.31;;;16.52;45.58
18784;BME280;9520;50.954;6.968;2024-02-14T01:29:28;100981.25;;;16.53;46.10
18784;BME280;9520;50.954;6.968;2024-02-14T01:29:49;100977.63;;;16.56;46.18
18784;BME280;9520;50.954;6.968;2024-02-14T01:30:11;100983.16;;;16.50;46.34
18784;BME280;9520;50.954;6.968;2024-02-14T01:30:33;100982.06;;;16.55;46.09
18784;BME280;9520;50.954;6.968;2024-02-14T01:30:56;100980.19;;;16.59;46.05
18784;BME280;9520;50.954;6.968;2024-02-14T01:31:18;100982.81;;;16.60;45.96
18784;BME280;9520;50.954;6.968;2024-02-14T01:31:42;100985.44;;;16.62;45.63
18784;BME280;9520;50.954;6.968;2024-02-14T01:32:05;100983.69;;;16.61;45.63
18784;BME280;9520;50.954;6.968;2024-02-14T01:32:28;100974.78;;;16.62;45.55
18784;BME280;9520;50.954;6.968;2024-02-14T01:32:51;100984.59;;;16.33;45.90
18784;BME280;9520;50.954;6.968;2024-02-14T01:33:14;100993.09;;;16.18;46.19
18784;BME280;9520;50.954;6.968;2024-02-14T01:33:38;100975.25;;;16.22;46.54
18784;BME280;9520;50.954;6.968;2024-02-14T01:34:00;100985.69;;;16.28;46.31
18784;BME280;9520;50.954;6.968;2024-02-14T01:34:24;100982.16;;;16.27;46.44
18784;BME280;9520;50.954;6.968;2024-02-14T01:34:46;100973.94;;;16.33;46.52
18784;BME280;9520;50.954;6.968;2024-02-14T01:35:08;100973.75;;;16.39;46.27
18784;BME280;9520;50.954;6.968;2024-02-14T01:35:31;100974.50;;;16.43;46.08
18784;BME280;9520;50.954;6.968;2024-02-14T01:35:53;100978.03;;;16.43;46.00
18784;BME280;9520;50.954;6.968;2024-02-14T01:36:14;100974.81;;;16.34;46.18
18784;BME280;9520;50.954;6.968;2024-02-14T01:36:38;100981.69;;;16.41;45.83
18784;BME280;9520;50.954;6.968;2024-02-14T01:37:00;100975.69;;;16.34;45.83
18784;BME280;9520;50.954;6.968;2024-02-14T01:37:21;100976.69;;;16.32;46.27
18784;BME280;9520;50.954;6.968;2024-02-14T01:37:43;100979.91;;;16.41;45.92
18784;BME280;9520;50.954;6.968;2024-02-14T01:38:06;100975.38;;;16.43;45.96
18784;BME280;9520;50.954;6.968;2024-02-14T01:38:29;100972.94;;;16.37;45.89
18784;BME280;9520;50.954;6.968;2024-02-14T01:38:56;100975.38;;;16.43;45.89
18784;BME280;9520;50.954;6.968;2024-02-14T01:39:18;100979.06;;;16.39;46.05
18784;BME280;9520;50.954;6.968;2024-02-14T01:39:40;100973.59;;;16.44;46.22
18784;BME280;9520;50.954;6.968;2024-02-14T01:40:02;100978.88;;;16.46;45.91
18784;BME280;9520;50.954;6.968;2024-02-14T01:40:23;100981.94;;;16.33;46.04
18784;BME280;9520;50.954;6.968;2024-02-14T01:40:45;100979.59;;;16.24;46.25
18784;BME280;9520;50.954;6.968;2024-02-14T01:41:08;100982.00;;;16.32;46.29
18784;BME280;9520;50.954;6.968;2024-02-14T01:41:30;100975.06;;;16.28;46.07
18784;BME280;9520;50.954;6.968;2024-02-14T01:41:51;100966.19;;;16.27;46.25
18784;BME280;9520;50.954;6.968;2024-02-14T01:42:13;100984.66;;;16.32;46.19
18784;BME280;9520;50.954;6.968;2024-02-14T01:42:36;100987.31;;;16.32;46.29
18784;BME280;9520;50.954;6.968;2024-02-14T01:42:57;100983.75;;;16.33;46.12
18784;BME280;9520;50.954;6.968;2024-02-14T01:43:21;100977.44;;;16.35;46.09
18784;BME280;9520;50.954;6.968;2024-02-14T01:43:43;100980.13;;;16.34;46.38
18784;BME280;9520;50.954;6.968;2024-02-14T01:44:05;100971.19;;;16.36;46.38
18784;BME280;9520;50.954;6.968;2024-02-14T01:44:28;100974.66;;;16.38;46.33
18784;BME280;9520;50.954;6.968;2024-02-14T01:44:49;100979.06;;;16.39;46.47
18784;BME280;9520;50.954;6.968;2024-02-14T01:45:12;100967.50;;;16.40;46.45
18784;BME280;9520;50.954;6.968;2024-02-14T01:45:34;100975.22;;;16.48;46.37
18784;BME280;9520;50.954;6.968;2024-02-14T01:46:02;100978.03;;;16.43;46.00
18784;BME280;9520;50.954;6.968;2024-02-14T01:46:25;100984.31;;;16.42;46.12
18784;BME280;9520;50.954;6.968;2024-02-14T01:46:47;100982.41;;;16.46;46.25
18784;BME280;9520;50.954;6.968;2024-02-14T01:47:10;100980.41;;;16.53;45.98
18784;BME280;9520;50.954;6.968;2024-02-14T01:47:33;100983.16;;;16.50;46.35
18784;BME280;9520;50.954;6.968;2024-02-14T01:47:56;100984.06;;;16.49;46.16
18784;BME280;9520;50.954;6.968;2024-02-14T01:48:18;100974.28;;;16.49;46.19
18784;BME280;9520;50.954;6.968;2024-02-14T01:48:41;100980.44;;;16.51;46.14
18784;BME280;9520;50.954;6.968;2024-02-14T01:49:04;100984.03;;;16.50;45.95
18784;BME280;9520;50.954;6.968;2024-02-14T01:49:27;100971.72;;;16.48;45.87
18784;BME280;9520;50.954;6.968;2024-02-14T01:49:49;100976.00;;;16.25;46.58
18784;BME280;9520;50.954;6.968;2024-02-14T01:50:11;100987.25;;;16.33;46.45
18784;BME280;9520;50.954;6.968;2024-02-14T01:50:33;100984.50;;;16.36;46.35
18784;BME280;9520;50.954;6.968;2024-02-14T01:50:56;100979.94;;;16.40;46.37
18784;BME280;9520;50.954;6.968;2024-02-14T01:51:21;100987.75;;;16.45;46.37
18784;BME280;9520;50.954;6.968;2024-02-14T01:51:46;100982.34;;;16.48;45.90
18784;BME280;9520;50.954;6.968;2024-02-14T01:52:08;100989.31;;;16.52;46.14
18784;BME280;9520;50.954;6.968;2024-02-14T01:52:30;100989.22;;;16.53;46.08
18784;BME280;9520;50.954;6.968;2024-02-14T01:52:52;100984.69;;;16.57;45.88
18784;BME280;9520;50.954;6.968;2024-02-14T01:53:13;100991.72;;;16.59;45.88
18784;BME280;9520;50.954;6.968;2024-02-14T01:53:37;100986.31;;;16.62;46.07
18784;BME280;9520;50.954;6.968;2024-02-14T01:54:00;100983.91;;;16.53;45.74
18784;BME280;9520;50.954;6.968;2024-02-14T01:54:21;100990.97;;;16.54;46.01
18784;BME280;9520;50.954;6.968;2024-02-14T01:54:43;100992.78;;;16.54;46.10
18784;BME280;9520;50.954;6.968;2024-02-14T01:55:07;100989.06;;;16.58;46.08
18784;BME280;9520;50.954;6.968;2024-02-14T01:55:31;100985.72;;;16.53;46.11
18784;BME280;9520;50.954;6.968;2024-02-14T01:55:53;100983.97;;;16.52;45.84
18784;BME280;9520;50.954;6.968;2024-02-14T01:56:14;100995.38;;;16.55;45.78
18784;BME280;9520;50.954;6.968;2024-02-14T01:56:37;100995.34;;;16.57;45.98
18784;BME280;9520;50.954;6.968;2024-02-14T01:57:00;100987.44;;;16.54;45.94
18784;BME280;9520;50.954;6.968;2024-02-14T01:57:24;100989.41;;;16.49;46.05
18784;BME280;9520;50.954;6.968;2024-02-14T01:57:46;100984.94;;;16.49;46.02
18784;BME280;9520;50.954;6.968;2024-02-14T01:58:07;100985.72;;;16.53;46.31
18784;BME280;9520;50.954;6.968;2024-02-14T01:58:32;100986.53;;;16.55;46.01
18784;BME280;9520;50.954;6.968;2024-02-14T01:58:56;100989.94;;;16.60;46.09
18784;BME280;9520;50.954;6.968;2024-02-14T01:59:18;100983.75;;;16.58;46.21